Centerville, Georgia
Current Conditions -  °F | °C
As of 2:32 PM on Sunday 21 Dec 2014 (Local Time) from KWRB Reporting Station
Light Rain Light Rain  
Wind Chill: 54°   Ceiling: 1900
Heat Index: 54°   Visibility: 8mi
Dew Point: 46°   Wind: 6mph
Humidity: 77%   Direction: NA
Pressure: 30.11"   Gusts: NA
Location:  32.63°N, 83.69°W
Report Text: KWRB 211932Z AUTO VRB05KT 8SM -RA OVC019 12/08 A3011 RMK AO2
Loading
Personal Weather Stations






























Interactive Weather Map New forecast layout! Learn more

10-Day Weather Forecast

Advertisements
Track Severe Weather on mobile